createdAt,value
2018-12-30T00:01:10.800Z,43.08
2018-12-30T00:03:51.632Z,42.80
2018-12-30T00:06:32.464Z,43.05
2018-12-30T00:09:13.660Z,42.90
2018-12-30T00:11:54.724Z,42.67
2018-12-30T00:14:35.422Z,42.10
2018-12-30T00:17:16.169Z,40.20
2018-12-30T00:19:56.704Z,41.63
2018-12-30T00:22:37.408Z,38.83
2018-12-30T00:25:17.937Z,40.15
2018-12-30T00:27:58.740Z,34.93
2018-12-30T00:30:39.640Z,38.95
2018-12-30T00:33:20.477Z,36.28
2018-12-30T00:36:01.549Z,35.08
2018-12-30T00:38:42.325Z,34.50
2018-12-30T00:41:22.989Z,33.10
2018-12-30T00:44:05.081Z,34.33
2018-12-30T00:46:46.032Z,32.30
2018-12-30T00:49:26.956Z,32.33
2018-12-30T00:52:07.734Z,32.28
2018-12-30T00:54:48.380Z,31.57
2018-12-30T00:57:29.257Z,28.20
2018-12-30T01:00:10.553Z,29.30
2018-12-30T01:02:51.788Z,29.25
2018-12-30T01:05:33.275Z,27.25
2018-12-30T01:08:14.529Z,25.65
2018-12-30T01:10:55.726Z,25.70
2018-12-30T01:13:37.315Z,25.00
2018-12-30T01:16:18.524Z,26.68
2018-12-30T01:18:59.566Z,26.02
2018-12-30T01:21:41.141Z,25.62
2018-12-30T01:24:21.976Z,25.50
2018-12-30T01:27:02.952Z,25.63
2018-12-30T01:29:43.968Z,24.57
2018-12-30T01:32:25.365Z,23.98
2018-12-30T01:35:06.416Z,25.45
2018-12-30T01:37:46.764Z,25.08
2018-12-30T01:40:27.704Z,23.20
2018-12-30T01:43:09.305Z,23.97
2018-12-30T01:45:50.065Z,24.43
2018-12-30T01:48:30.552Z,24.35
2018-12-30T01:51:11.352Z,22.22
2018-12-30T01:53:52.376Z,23.47
2018-12-30T01:56:33.177Z,24.07
2018-12-30T01:59:14.057Z,23.50
2018-12-30T02:01:54.684Z,24.80
2018-12-30T02:04:35.676Z,22.50
2018-12-30T02:07:16.637Z,21.37
2018-12-30T02:09:57.188Z,23.95
2018-12-30T02:12:38.152Z,21.95
2018-12-30T02:15:19.425Z,21.30
2018-12-30T02:18:00.552Z,24.80
2018-12-30T02:20:41.549Z,23.27
2018-12-30T02:23:22.681Z,22.00
2018-12-30T02:26:03.704Z,24.12
2018-12-30T02:28:44.729Z,22.48
2018-12-30T02:31:25.605Z,23.92
2018-12-30T02:34:06.555Z,23.62
2018-12-30T02:36:47.585Z,21.17
2018-12-30T02:39:28.104Z,22.58
2018-12-30T02:42:08.929Z,22.83
2018-12-30T02:44:50.089Z,22.60
2018-12-30T02:47:30.861Z,21.42
2018-12-30T02:50:11.713Z,21.05
2018-12-30T02:52:52.711Z,20.68
2018-12-30T02:55:33.868Z,20.87
2018-12-30T02:58:14.862Z,19.15
2018-12-30T03:00:55.852Z,19.05
2018-12-30T03:03:36.851Z,18.85
2018-12-30T03:06:17.936Z,18.05
2018-12-30T03:08:58.710Z,18.65
2018-12-30T03:11:39.845Z,17.65
2018-12-30T03:14:20.778Z,17.53
2018-12-30T03:17:01.574Z,18.25
2018-12-30T03:19:42.094Z,18.40
2018-12-30T03:22:22.702Z,18.32
2018-12-30T03:25:03.763Z,19.05
2018-12-30T03:27:44.341Z,18.90
2018-12-30T03:30:25.082Z,18.92
2018-12-30T03:33:06.227Z,20.05
2018-12-30T03:35:47.144Z,21.40
2018-12-30T03:38:27.783Z,21.10
2018-12-30T03:41:08.589Z,21.45
2018-12-30T03:43:49.138Z,23.53
2018-12-30T03:46:30.020Z,21.33
2018-12-30T03:49:10.799Z,21.77
2018-12-30T03:51:51.650Z,23.55
2018-12-30T03:54:32.259Z,24.35
2018-12-30T03:57:13.080Z,23.33
2018-12-30T03:59:53.785Z,23.22
2018-12-30T04:02:34.874Z,24.67
2018-12-30T04:05:15.740Z,23.47
2018-12-30T04:07:56.536Z,24.60
2018-12-30T04:10:37.444Z,25.52
2018-12-30T04:13:18.308Z,25.77
2018-12-30T04:15:59.040Z,25.62
2018-12-30T04:18:39.908Z,23.70
2018-12-30T04:21:20.905Z,24.67
2018-12-30T04:24:01.654Z,25.05
2018-12-30T04:26:42.426Z,26.87
2018-12-30T04:29:23.517Z,26.77
2018-12-30T04:32:04.334Z,27.42
2018-12-30T04:34:45.361Z,26.65
2018-12-30T04:37:26.298Z,27.53
2018-12-30T04:40:07.270Z,26.45
2018-12-30T04:42:48.028Z,29.48
2018-12-30T04:45:29.089Z,29.67
2018-12-30T04:48:09.925Z,28.30
2018-12-30T04:50:50.963Z,29.18
2018-12-30T04:53:31.955Z,28.17
2018-12-30T04:56:12.609Z,27.82
2018-12-30T04:58:53.435Z,27.70
2018-12-30T05:01:34.179Z,28.70
2018-12-30T05:04:14.757Z,31.97
2018-12-30T05:06:55.498Z,30.27
2018-12-30T05:09:36.061Z,30.80
2018-12-30T05:12:18.425Z,29.07
2018-12-30T05:14:59.315Z,29.55
2018-12-30T05:17:40.267Z,28.63
2018-12-30T05:20:20.872Z,29.10
2018-12-30T05:23:01.726Z,28.20
2018-12-30T05:25:43.180Z,29.42
2018-12-30T05:28:23.972Z,30.82
2018-12-30T05:31:04.897Z,31.50
2018-12-30T05:33:45.907Z,30.40
2018-12-30T05:36:26.689Z,29.40
2018-12-30T05:39:07.613Z,30.90
2018-12-30T05:41:48.756Z,31.75
2018-12-30T05:44:29.348Z,32.93
2018-12-30T05:47:10.170Z,32.33
2018-12-30T05:49:51.269Z,33.90
2018-12-30T05:52:32.040Z,32.25
2018-12-30T05:55:13.030Z,31.70
2018-12-30T05:57:53.808Z,32.48
2018-12-30T06:00:34.719Z,31.60
2018-12-30T06:03:15.489Z,32.10
2018-12-30T06:05:56.345Z,30.37
2018-12-30T06:08:36.869Z,31.00
2018-12-30T06:11:17.763Z,31.47
2018-12-30T06:13:58.797Z,31.90
2018-12-30T06:16:39.548Z,28.57
2018-12-30T06:19:20.324Z,29.80
2018-12-30T06:22:01.492Z,29.40
2018-12-30T06:24:42.360Z,27.70
2018-12-30T06:27:23.297Z,30.15
2018-12-30T06:30:03.937Z,28.25
2018-12-30T06:32:45.069Z,25.85
2018-12-30T06:35:29.639Z,28.50
2018-12-30T06:38:10.572Z,28.38
2018-12-30T06:40:51.630Z,27.75
2018-12-30T06:43:32.649Z,28.57
2018-12-30T06:46:13.633Z,27.45
2018-12-30T06:48:54.650Z,27.40
2018-12-30T06:51:35.524Z,26.68
2018-12-30T06:54:16.496Z,26.73
2018-12-30T06:56:57.643Z,25.63
2018-12-30T06:59:38.681Z,27.60
2018-12-30T07:02:19.686Z,26.68
2018-12-30T07:05:00.893Z,26.45
2018-12-30T07:07:41.928Z,28.25
2018-12-30T07:10:22.952Z,24.47
2018-12-30T07:13:03.905Z,25.85
2018-12-30T07:15:44.854Z,25.48
2018-12-30T07:18:25.868Z,23.18
2018-12-30T07:21:06.565Z,22.55
2018-12-30T07:23:47.521Z,22.95
2018-12-30T07:26:28.296Z,23.30
2018-12-30T07:29:09.060Z,23.93
2018-12-30T07:31:49.867Z,22.62
2018-12-30T07:34:30.953Z,21.17
2018-12-30T07:37:12.124Z,22.65
2018-12-30T07:39:53.184Z,19.62
2018-12-30T07:42:34.240Z,22.93
2018-12-30T07:45:15.156Z,21.25
2018-12-30T07:47:56.100Z,22.60
2018-12-30T07:50:37.049Z,22.93
2018-12-30T07:53:18.241Z,20.65
2018-12-30T07:55:59.295Z,21.27
2018-12-30T07:58:40.177Z,23.52
2018-12-30T08:01:21.140Z,22.17
2018-12-30T08:04:02.245Z,23.60
2018-12-30T08:06:43.308Z,22.05
2018-12-30T08:09:23.901Z,23.10
2018-12-30T08:12:04.685Z,23.62
2018-12-30T08:14:45.520Z,23.92
2018-12-30T08:17:26.609Z,25.72
2018-12-30T08:20:07.624Z,26.57
2018-12-30T08:22:48.753Z,27.98
2018-12-30T08:25:29.676Z,25.15
2018-12-30T08:28:10.620Z,28.25
2018-12-30T08:30:51.804Z,26.60
2018-12-30T08:33:32.906Z,26.73
2018-12-30T08:36:14.113Z,26.52
2018-12-30T08:38:55.458Z,26.62
2018-12-30T08:41:36.051Z,26.65
2018-12-30T08:44:17.221Z,24.32
2018-12-30T08:46:57.987Z,23.92
2018-12-30T08:49:39.066Z,25.62
2018-12-30T08:52:19.554Z,25.77
2018-12-30T08:55:00.249Z,27.05
2018-12-30T08:57:41.145Z,26.35
2018-12-30T09:00:22.167Z,22.62
2018-12-30T09:03:03.188Z,24.32
2018-12-30T09:05:43.921Z,27.20
2018-12-30T09:08:24.541Z,22.37
2018-12-30T09:11:06.026Z,24.10
2018-12-30T09:13:47.035Z,24.30
2018-12-30T09:16:28.441Z,22.87
2018-12-30T09:19:09.469Z,23.98
2018-12-30T09:21:50.174Z,23.27
2018-12-30T09:24:31.057Z,26.27
2018-12-30T09:27:11.979Z,21.20
2018-12-30T09:29:53.034Z,23.22
2018-12-30T09:32:33.783Z,21.33
2018-12-30T09:35:14.769Z,23.00
2018-12-30T09:37:55.261Z,22.13
2018-12-30T09:40:36.041Z,23.17
2018-12-30T09:43:16.833Z,24.98
2018-12-30T09:45:57.834Z,21.02
2018-12-30T09:48:38.674Z,22.60
2018-12-30T09:51:19.704Z,23.40
2018-12-30T09:54:00.713Z,21.93
2018-12-30T09:56:41.812Z,22.75
2018-12-30T09:59:22.752Z,22.20
2018-12-30T10:02:04.009Z,23.42
2018-12-30T10:04:44.408Z,24.07
2018-12-30T10:07:25.414Z,24.32
2018-12-30T10:10:06.631Z,17.80
2018-12-30T10:12:47.392Z,21.45
2018-12-30T10:15:28.387Z,22.00
2018-12-30T10:18:08.928Z,23.00
2018-12-30T10:20:49.985Z,20.37
2018-12-30T10:23:31.566Z,23.45
2018-12-30T10:26:12.881Z,20.45
2018-12-30T10:28:53.913Z,20.52
2018-12-30T10:31:34.884Z,19.95
2018-12-30T10:34:15.447Z,21.60
2018-12-30T10:36:56.372Z,19.00
2018-12-30T10:39:36.977Z,20.52
2018-12-30T10:42:17.822Z,19.47
2018-12-30T10:44:58.613Z,21.75
2018-12-30T10:47:39.597Z,21.02
2018-12-30T10:50:20.289Z,16.75
2018-12-30T10:53:00.913Z,21.65
2018-12-30T10:55:42.063Z,18.23
2018-12-30T10:58:22.789Z,18.25
2018-12-30T11:01:03.300Z,17.85
2018-12-30T11:03:44.270Z,19.60
2018-12-30T11:06:25.296Z,19.52
2018-12-30T11:09:06.082Z,18.67
2018-12-30T11:11:48.755Z,19.50
2018-12-30T11:14:29.693Z,17.05
2018-12-30T11:17:10.708Z,18.65
2018-12-30T11:19:51.269Z,15.32
2018-12-30T11:22:32.040Z,17.80
2018-12-30T11:25:12.678Z,16.80
2018-12-30T11:27:53.589Z,16.25
2018-12-30T11:30:34.110Z,18.27
2018-12-30T11:33:14.901Z,16.60
2018-12-30T11:35:55.765Z,17.52
2018-12-30T11:38:36.779Z,18.45
2018-12-30T11:41:17.235Z,17.90
2018-12-30T11:43:57.988Z,19.20
2018-12-30T11:46:38.650Z,18.73
2018-12-30T11:49:19.732Z,16.32
2018-12-30T11:52:00.820Z,18.33
2018-12-30T11:54:41.818Z,18.27
2018-12-30T11:57:22.956Z,15.93
2018-12-30T12:00:03.893Z,17.87
2018-12-30T12:02:44.509Z,18.77
2018-12-30T12:05:25.589Z,17.95
2018-12-30T12:08:06.654Z,17.70
2018-12-30T12:10:47.357Z,18.12
2018-12-30T12:13:28.120Z,17.05
2018-12-30T12:16:09.057Z,17.13
2018-12-30T12:18:49.839Z,15.08
2018-12-30T12:21:30.580Z,15.90
2018-12-30T12:24:11.620Z,18.25
2018-12-30T12:29:40.843Z,17.65
2018-12-30T12:32:22.076Z,15.20
2018-12-30T12:35:02.999Z,13.58
2018-12-30T12:37:44.028Z,16.75
2018-12-30T12:40:24.995Z,17.32
2018-12-30T12:43:05.694Z,14.63
2018-12-30T12:45:46.835Z,14.45
2018-12-30T12:48:27.656Z,13.62
2018-12-30T12:51:08.556Z,14.87
2018-12-30T12:53:49.357Z,13.75
2018-12-30T12:56:30.378Z,14.35
2018-12-30T12:59:11.270Z,13.48
2018-12-30T13:01:51.697Z,13.80
2018-12-30T13:04:32.448Z,13.40
2018-12-30T13:07:13.124Z,15.60
2018-12-30T13:09:54.417Z,13.43
2018-12-30T13:12:35.205Z,15.65
2018-12-30T13:15:16.042Z,12.13
2018-12-30T13:17:56.990Z,16.03
2018-12-30T13:20:37.948Z,14.50
2018-12-30T13:23:18.929Z,13.45
2018-12-30T13:25:59.672Z,15.05
2018-12-30T13:28:40.509Z,14.15
2018-12-30T13:31:21.204Z,14.70
2018-12-30T13:34:01.789Z,14.70
2018-12-30T13:36:42.470Z,13.37
2018-12-30T13:39:23.291Z,14.43
2018-12-30T13:42:04.077Z,14.98
2018-12-30T13:44:44.648Z,13.43
2018-12-30T13:47:25.353Z,11.95
2018-12-30T13:50:06.433Z,11.40
2018-12-30T13:52:47.456Z,13.05
2018-12-30T13:55:28.280Z,16.17
2018-12-30T13:58:09.049Z,16.77
2018-12-30T14:00:49.726Z,16.48
2018-12-30T14:03:30.508Z,13.38
2018-12-30T14:06:11.633Z,10.95
2018-12-30T14:08:52.305Z,15.40
2018-12-30T14:11:33.031Z,15.53
2018-12-30T14:14:14.121Z,11.85
2018-12-30T14:16:54.885Z,13.38
2018-12-30T14:19:35.632Z,15.00
2018-12-30T14:22:16.809Z,16.32
2018-12-30T14:24:57.638Z,13.68
2018-12-30T14:27:38.468Z,13.33
2018-12-30T14:30:19.171Z,11.73
2018-12-30T14:32:59.972Z,13.45
2018-12-30T14:35:40.957Z,13.62
2018-12-30T14:38:21.508Z,13.93
2018-12-30T14:41:02.372Z,13.60
2018-12-30T14:43:43.429Z,12.73
2018-12-30T14:46:24.250Z,13.80
2018-12-30T14:49:05.118Z,14.85
2018-12-30T14:51:45.938Z,12.30
2018-12-30T14:54:26.805Z,13.38
2018-12-30T14:57:07.715Z,13.45
2018-12-30T14:59:48.565Z,12.37
2018-12-30T15:02:29.389Z,15.55
2018-12-30T15:05:09.937Z,14.78
2018-12-30T15:07:51.068Z,14.58
2018-12-30T15:10:31.756Z,13.90
2018-12-30T15:13:12.693Z,11.05
2018-12-30T15:15:53.681Z,14.53
2018-12-30T15:18:34.188Z,15.53
2018-12-30T15:21:14.940Z,15.75
2018-12-30T15:23:55.854Z,14.13
2018-12-30T15:26:36.968Z,14.80
2018-12-30T15:29:17.943Z,14.80
2018-12-30T15:31:58.736Z,15.00
2018-12-30T15:34:39.708Z,12.30
2018-12-30T15:37:20.529Z,13.83
2018-12-30T15:40:01.375Z,14.78
2018-12-30T15:42:41.914Z,13.93
2018-12-30T15:45:22.795Z,11.93
2018-12-30T15:48:03.563Z,12.60
2018-12-30T15:50:44.458Z,11.40
2018-12-30T15:53:25.664Z,12.63
2018-12-30T15:56:07.089Z,11.97
2018-12-30T15:58:47.937Z,13.97
2018-12-30T16:01:28.861Z,12.15
2018-12-30T16:04:09.939Z,11.87
2018-12-30T16:06:50.713Z,12.07
2018-12-30T16:09:31.310Z,12.33
2018-12-30T16:12:12.061Z,13.13
2018-12-30T16:14:53.100Z,11.20
2018-12-30T16:17:34.160Z,11.97
2018-12-30T16:20:15.246Z,13.55
2018-12-30T16:22:56.290Z,12.30
2018-12-30T16:25:37.032Z,12.03
2018-12-30T16:28:17.801Z,12.30
2018-12-30T16:30:58.536Z,11.45
2018-12-30T16:33:39.469Z,14.90
2018-12-30T16:36:20.590Z,12.95
2018-12-30T16:39:01.478Z,12.50
2018-12-30T16:41:42.088Z,11.73
2018-12-30T16:44:22.717Z,13.58
2018-12-30T16:47:03.521Z,12.53
2018-12-30T16:49:44.381Z,13.53
2018-12-30T16:52:25.125Z,14.40
2018-12-30T16:55:05.735Z,15.72
2018-12-30T16:57:46.725Z,14.93
2018-12-30T17:00:27.636Z,13.68
2018-12-30T17:03:08.617Z,13.43
2018-12-30T17:05:49.389Z,13.05
2018-12-30T17:08:30.054Z,14.20
2018-12-30T17:11:12.945Z,14.35
2018-12-30T17:13:53.751Z,14.37
2018-12-30T17:16:34.532Z,15.28
2018-12-30T17:19:18.803Z,14.25
2018-12-30T17:22:05.508Z,14.87
2018-12-30T17:24:51.632Z,13.53
2018-12-30T17:27:33.390Z,12.07
2018-12-30T17:30:14.213Z,14.80
2018-12-30T17:32:54.989Z,12.75
2018-12-30T17:35:35.529Z,13.22
2018-12-30T17:38:16.256Z,14.45
2018-12-30T17:41:01.567Z,13.78
2018-12-30T17:43:40.246Z,13.48
2018-12-30T17:46:21.330Z,12.65
2018-12-30T17:49:02.510Z,15.58
2018-12-30T17:51:43.299Z,13.78
2018-12-30T17:54:24.308Z,16.30
2018-12-30T17:57:05.400Z,16.00
2018-12-30T17:59:46.280Z,14.28
2018-12-30T18:02:27.309Z,14.15
2018-12-30T18:05:08.393Z,14.35
2018-12-30T18:07:49.514Z,13.95
2018-12-30T18:10:30.006Z,14.78
2018-12-30T18:13:11.037Z,14.90
2018-12-30T18:15:51.672Z,15.05
2018-12-30T18:18:32.860Z,13.25
2018-12-30T18:21:13.836Z,15.07
2018-12-30T18:23:54.840Z,13.10
2018-12-30T18:26:37.944Z,14.23
2018-12-30T18:29:17.981Z,14.87
2018-12-30T18:31:59.033Z,16.87
2018-12-30T18:34:40.052Z,12.93
2018-12-30T18:37:23.210Z,15.93
2018-12-30T18:40:03.706Z,15.75
2018-12-30T18:42:44.221Z,14.45
2018-12-30T18:45:24.724Z,13.90
2018-12-30T18:48:05.581Z,14.17
2018-12-30T18:50:46.656Z,16.23
2018-12-30T18:53:27.792Z,16.07
2018-12-30T18:56:08.761Z,17.60
2018-12-30T18:58:49.608Z,16.40
2018-12-30T19:01:30.620Z,15.63
2018-12-30T19:04:11.619Z,18.40
2018-12-30T19:06:52.640Z,16.17
2018-12-30T19:09:33.386Z,14.07
2018-12-30T19:12:14.232Z,15.48
2018-12-30T19:14:55.025Z,16.17
2018-12-30T19:17:35.985Z,15.70
2018-12-30T19:20:16.905Z,17.65
2018-12-30T19:22:57.933Z,18.17
2018-12-30T19:25:38.775Z,16.70
2018-12-30T19:28:19.869Z,16.97
2018-12-30T19:31:00.531Z,17.77
2018-12-30T19:33:41.368Z,15.68
2018-12-30T19:36:22.345Z,15.70
2018-12-30T19:39:04.601Z,15.90
2018-12-30T19:41:45.649Z,14.60
2018-12-30T19:44:26.286Z,14.47
2018-12-30T19:47:07.230Z,13.78
2018-12-30T19:49:48.396Z,16.05
2018-12-30T19:52:29.121Z,15.45
2018-12-30T19:55:14.279Z,15.70
2018-12-30T19:57:57.057Z,15.35
2018-12-30T20:00:38.504Z,16.00
2018-12-30T20:03:20.376Z,17.57
2018-12-30T20:06:04.858Z,15.45
2018-12-30T20:08:46.566Z,16.60
2018-12-30T20:11:27.396Z,17.77
2018-12-30T20:14:08.809Z,15.03
2018-12-30T20:16:50.419Z,15.20
2018-12-30T20:19:31.680Z,16.40
2018-12-30T20:22:12.551Z,16.70
2018-12-30T20:24:53.421Z,15.47
2018-12-30T20:27:34.615Z,14.85
2018-12-30T20:30:15.397Z,15.25
2018-12-30T20:32:56.108Z,13.43
2018-12-30T20:35:36.552Z,16.73
2018-12-30T20:38:19.114Z,17.17
2018-12-30T20:41:00.001Z,13.70
2018-12-30T20:43:40.973Z,13.83
2018-12-30T20:46:21.719Z,14.73
2018-12-30T20:49:02.601Z,16.30
2018-12-30T20:51:43.584Z,14.68
2018-12-30T20:54:24.457Z,13.13
2018-12-30T20:57:05.344Z,14.15
2018-12-30T20:59:46.102Z,19.92
2018-12-30T21:02:26.825Z,12.68
2018-12-30T21:05:07.560Z,16.35
2018-12-30T21:07:48.669Z,13.25
2018-12-30T21:10:29.427Z,17.95
2018-12-30T21:13:10.575Z,15.72
2018-12-30T21:15:51.838Z,15.50
2018-12-30T21:18:33.453Z,13.32
2018-12-30T21:21:14.126Z,16.17
2018-12-30T21:23:55.260Z,12.98
2018-12-30T21:26:36.597Z,15.05
2018-12-30T21:29:17.376Z,14.30
2018-12-30T21:31:58.322Z,12.77
2018-12-30T21:34:38.847Z,14.93
2018-12-30T21:37:19.422Z,16.57
2018-12-30T21:40:00.269Z,15.40
2018-12-30T21:42:43.944Z,13.28
2018-12-30T21:45:23.778Z,16.48
2018-12-30T21:48:04.636Z,12.83
2018-12-30T21:50:45.669Z,11.85
2018-12-30T21:53:26.865Z,15.33
2018-12-30T21:56:07.616Z,16.10
2018-12-30T21:58:48.568Z,13.15
2018-12-30T22:01:29.352Z,11.33
2018-12-30T22:04:10.449Z,13.55
2018-12-30T22:06:51.370Z,12.07
2018-12-30T22:09:32.423Z,13.88
2018-12-30T22:12:13.169Z,11.40
2018-12-30T22:14:53.965Z,12.88
2018-12-30T22:17:34.815Z,15.68
2018-12-30T22:20:16.010Z,12.40
2018-12-30T22:22:56.643Z,10.40
2018-12-30T22:25:37.409Z,13.58
2018-12-30T22:28:18.236Z,13.05
2018-12-30T22:30:59.068Z,14.50
2018-12-30T22:33:39.997Z,14.38
2018-12-30T22:36:20.759Z,12.47
2018-12-30T22:39:01.989Z,13.32
2018-12-30T22:41:42.846Z,15.65
2018-12-30T22:44:23.861Z,14.90
2018-12-30T22:47:04.948Z,14.78
2018-12-30T22:49:45.761Z,15.85
2018-12-30T22:52:26.945Z,15.95
2018-12-30T22:55:08.291Z,15.43
2018-12-30T22:57:49.429Z,13.10
2018-12-30T23:00:32.044Z,12.07
2018-12-30T23:03:13.268Z,14.33
2018-12-30T23:05:54.078Z,16.05
2018-12-30T23:08:35.032Z,12.85
2018-12-30T23:11:16.171Z,14.80
2018-12-30T23:13:56.797Z,15.43
2018-12-30T23:16:37.512Z,13.10
2018-12-30T23:19:17.893Z,13.75
2018-12-30T23:21:58.673Z,15.63
2018-12-30T23:24:39.530Z,14.43
2018-12-30T23:27:20.560Z,12.93
2018-12-30T23:30:01.260Z,15.93
2018-12-30T23:32:42.245Z,15.55
2018-12-30T23:35:23.142Z,15.28
2018-12-30T23:38:04.073Z,17.12
2018-12-30T23:40:45.044Z,21.40
2018-12-30T23:43:26.104Z,23.63
2018-12-30T23:46:07.258Z,22.75
2018-12-30T23:48:48.241Z,24.87
2018-12-30T23:51:29.228Z,22.97
2018-12-30T23:54:10.316Z,23.20
2018-12-30T23:56:51.580Z,23.92
2018-12-30T23:59:32.709Z,20.55
